Buoy 62722

sailwx.info

Track history (hours):
 
Tides and Currents Weather Stations Pressure Air Temp Water Temp Dewpoint Dewpoint Depression Visibility Wind Speed Wind Dir Waves Ship Positions

Drifting buoy 62722

Last reported at 2014-May-22 16:00 UTC. Time now 2014-Aug-21 04:22 UTC.
Position N 30°46' W 017°29'.
Warning: this ship's position is months out of date.

Water temperature 20.1 ° C

Date/timePositionNaut miles runAvg speedWind from/ knotsBaromVisibWave heightAir tempDewpointWater temp
2014-May-22 16:00N 30°46' W 017°29'1 0.4 20.1
2014-May-22 14:00N 30°46' W 017°28'0 0.2 20.2
2014-May-22 12:00N 30°45' W 017°28'0 0.1 19.8
2014-May-22 11:00N 30°45' W 017°28'0 0.1 19.8
2014-May-22 10:00N 30°45' W 017°28'0 0.0 19.7
2014-May-22 09:00N 30°45' W 017°28'0 0.0 19.6
2014-May-22 06:00N 30°46' W 017°28'0 0.5 19.6
2014-May-22 05:00N 30°45' W 017°28'0 0.2 19.6
2014-May-22 04:00N 30°46' W 017°28'0 0.0 19.6
2014-May-22 02:00N 30°46' W 017°28'1 0.3 19.6
2014-May-22 00:00N 30°45' W 017°28'0 0.0 19.7
2014-May-21 23:00N 30°45' W 017°28'0 0.3 19.7
2014-May-21 22:00N 30°45' W 017°28'0 0.3 19.7
2014-May-21 21:00N 30°45' W 017°29'1 0.3 19.7
2014-May-21 17:00N 30°44' W 017°29'1 0.2 19.8
2014-May-21 11:00N 30°44' W 017°28'0 0.3 19.7
2014-May-21 10:00N 30°44' W 017°28'0 0.1 19.6
2014-May-21 07:00N 30°44' W 017°28'0 0.0 19.6
2014-May-21 04:00N 30°44' W 017°28'0 0.0 19.6
2014-May-21 03:00N 30°44' W 017°28'1 0.3 19.7
2014-May-20 23:00N 30°44' W 017°29'0 0.2 19.7
2014-May-20 22:00N 30°44' W 017°29'0 0.4 19.7
2014-May-20 21:00N 30°43' W 017°29'0 0.1 19.7
2014-May-20 20:00N 30°43' W 017°29'0 0.1 19.7
2014-May-20 19:00N 30°43' W 017°29'0 0.0 19.7
2014-May-20 18:00N 30°43' W 017°29'1 0.6 19.8
2014-May-20 17:00N 30°43' W 017°29'0 0.2 19.8
2014-May-20 16:00N 30°43' W 017°29'1 0.3 19.8
2014-May-20 13:00N 30°42' W 017°28'0 0.0 19.8
2014-May-20 12:00N 30°42' W 017°28'0 0.2 19.8
2014-May-20 11:00N 30°42' W 017°28'0 0.0 19.7
2014-May-20 05:00N 30°42' W 017°28'0 0.1 19.6
2014-May-20 04:00N 30°42' W 017°28'0 0.0 19.6
2014-May-20 03:00N 30°42' W 017°28'0 0.2 19.6
2014-May-20 02:00N 30°42' W 017°29'1 0.3 19.6
2014-May-19 22:00N 30°41' W 017°30'2 1.6 19.7
2014-May-19 21:00N 30°40' W 017°29'0 0.1 19.7
2014-May-19 18:00N 30°40' W 017°29'1 0.7 19.8
2014-May-19 16:00N 30°39' W 017°30'1 1.0 19.9
2014-May-19 15:00N 30°38' W 017°29'1 0.4 19.9
2014-May-19 13:00N 30°38' W 017°28'0 0.0 19.8
2014-May-19 12:00N 30°38' W 017°28'1 1.2 19.7
2014-May-19 11:00N 30°38' W 017°27'0 0.4 19.7
2014-May-19 10:00N 30°38' W 017°27'1 0.5 19.6
2014-May-19 08:00N 30°39' W 017°26'0 0.0 19.6
2014-May-19 07:00N 30°39' W 017°26'0 0.5 19.6
2014-May-19 06:00N 30°39' W 017°27'0 0.0 19.6
2014-May-19 05:00N 30°39' W 017°27'1 0.5 19.6
2014-May-19 03:00N 30°39' W 017°28'0 0.0 19.6
2014-May-19 01:00N 30°39' W 017°28'3 0.6 19.6
2014-May-18 21:00N 30°36' W 017°28'0 0.0 19.7
2014-May-18 20:00N 30°36' W 017°28'2 0.8 19.7
2014-May-18 18:00N 30°35' W 017°28'0 0.2 19.8
2014-May-18 16:00N 30°34' W 017°27'1 0.7 19.8
2014-May-18 15:00N 30°34' W 017°27'2 0.5 19.8
2014-May-18 12:00N 30°34' W 017°25'0 0.2 19.7
2014-May-18 10:00N 30°34' W 017°25'0 0.5 19.6
2014-May-18 09:00N 30°34' W 017°24'0 0.0 19.6
2014-May-18 07:00N 30°34' W 017°24'1 0.7 19.6
2014-May-18 06:00N 30°35' W 017°25'0 0.0 19.6
2014-May-18 05:00N 30°35' W 017°25'0 0.0 19.6
2014-May-18 04:00N 30°35' W 017°25'3 1.0 19.6
2014-May-18 01:00N 30°32' W 017°27'0 0.0 19.6
2014-May-17 23:00N 30°32' W 017°27'1 1.2 19.6
2014-May-17 22:00N 30°31' W 017°26'1 1.0 19.6
2014-May-17 21:00N 30°31' W 017°26'0 0.1 19.6
2014-May-17 20:00N 30°31' W 017°25'1 0.4 19.7
2014-May-17 18:00N 30°30' W 017°25'0 0.2 19.7
2014-May-17 16:00N 30°30' W 017°25'1 0.7 19.7
2014-May-17 15:00N 30°30' W 017°24'2 0.7 19.8
2014-May-17 12:00N 30°29' W 017°23'1 0.4 19.7
2014-May-17 10:00N 30°29' W 017°22'0 0.0 19.5
2014-May-17 09:00N 30°29' W 017°22'0 0.1 19.5
2014-May-17 05:00N 30°29' W 017°22'0 0.0 19.5
2014-May-17 04:00N 30°29' W 017°22'1 0.5 19.5
2014-May-17 03:00N 30°29' W 017°22'0 0.0 19.5
2014-May-17 02:00N 30°29' W 017°22'2 0.5 19.5
2014-May-16 23:00N 30°27' W 017°23'1 0.9 19.6
2014-May-16 22:00N 30°27' W 017°24'3 1.1 19.6
2014-May-16 19:00N 30°24' W 017°21'0 0.0 19.6
2014-May-16 18:00N 30°24' W 017°21'0 0.0 19.6
2014-May-16 17:00N 30°24' W 017°21'1 0.6 19.7
2014-May-16 15:00N 30°23' W 017°20'1 0.3 19.7
2014-May-16 12:00N 30°23' W 017°19'0 0.2 19.7
2014-May-16 11:00N 30°23' W 017°19'1 0.5 19.6
2014-May-16 09:00N 30°23' W 017°18'0 0.0 19.6
2014-May-16 08:00N 30°23' W 017°18'0 0.2 19.5
2014-May-16 06:00N 30°23' W 017°18'0 0.1 19.5
2014-May-16 04:00N 30°23' W 017°18'1 0.5 19.6
2014-May-16 01:00N 30°21' W 017°18'0 0.0 19.6
2014-May-16 00:00N 30°21' W 017°18'0 0.0 19.6
2014-May-15 23:00N 30°21' W 017°18'0 0.1 19.6
2014-May-15 22:00N 30°21' W 017°18'2 1.9 19.6
2014-May-15 21:00N 30°19' W 017°17'1 0.2 19.7
2014-May-15 16:00N 30°19' W 017°16'1 0.9 19.8
2014-May-15 15:00N 30°18' W 017°16'1 0.8 19.8
2014-May-15 14:00N 30°18' W 017°15'0 0.0 19.7
2014-May-15 12:00N 30°18' W 017°15'0 0.2 19.6
2014-May-15 11:00N 30°18' W 017°15'1 0.5 19.5
2014-May-15 09:00N 30°18' W 017°13'0 0.0 19.4
2014-May-15 08:00N 30°18' W 017°13'0 0.4 19.4
2014-May-15 07:00N 30°17' W 017°13'0 0.1 19.4
2014-May-15 06:00N 30°17' W 017°13'0 0.4 19.4
2014-May-15 05:00N 30°17' W 017°13'0 0.0 19.4
2014-May-15 04:00N 30°17' W 017°13'1 0.5 19.4
2014-May-15 03:00N 30°17' W 017°12'1 0.3 19.4
2014-May-14 23:00N 30°16' W 017°12'0 0.4 19.5
2014-May-14 22:00N 30°15' W 017°11'0 0.2 19.5
2014-May-14 21:00N 30°15' W 017°11'1 0.3 19.5
2014-May-14 19:00N 30°15' W 017°11'0 0.0 19.6
2014-May-14 18:00N 30°15' W 017°11'1 0.6 19.7
2014-May-14 17:00N 30°14' W 017°11'1 0.6 19.7
2014-May-14 16:00N 30°14' W 017°10'3 0.6 19.7
2014-May-14 11:00N 30°12' W 017°07'0 0.2 19.4
2014-May-14 10:00N 30°12' W 017°07'0 0.0 19.4
2014-May-14 09:00N 30°12' W 017°07'1 0.4 19.4
2014-May-14 07:00N 30°12' W 017°06'0 0.1 19.4
2014-May-14 06:00N 30°12' W 017°06'0 0.3 19.4
2014-May-14 05:00N 30°12' W 017°06'0 0.0 19.5
2014-May-14 04:00N 30°12' W 017°06'0 0.4 19.5
2014-May-14 03:00N 30°12' W 017°06'1 0.4 19.5
2014-May-14 00:00N 30°11' W 017°05'1 0.4 19.6
2014-May-13 21:00N 30°10' W 017°06'1 1.3 19.7
2014-May-13 20:00N 30°09' W 017°04'0 0.0 19.7
2014-May-13 19:00N 30°09' W 017°04'1 0.2 19.7
2014-May-13 16:00N 30°09' W 017°04'3 0.6 19.9
2014-May-13 10:00N 30°08' W 017°00'1 0.7 19.2
2014-May-13 09:00N 30°08' W 016°59'1 0.3 19.2
2014-May-13 05:00N 30°08' W 016°58'0 0.0 19.2
2014-May-13 04:00N 30°08' W 016°58'1 0.2 19.2
2014-May-13 00:00N 30°07' W 016°58'1 0.8 19.2
2014-May-12 23:00N 30°07' W 016°57'1 0.6 19.2
2014-May-12 22:00N 30°06' W 016°58'0 0.4 19.2
2014-May-12 21:00N 30°06' W 016°57'1 1.1 19.2
2014-May-12 20:00N 30°06' W 016°56'1 0.6 19.3
2014-May-12 19:00N 30°05' W 016°56'2 0.6 19.3
2014-May-12 16:00N 30°04' W 016°54'   19.3
Track history (hours):
 
Tides and Currents Weather Stations Pressure Air Temp Water Temp Dewpoint Dewpoint Depression Visibility Wind Speed Wind Dir Waves Ship Positions

Drifting buoy 62722

Last reported at 2014-May-22 16:00 UTC. Time now 2014-Aug-21 04:22 UTC.
Position N 30°46' W 017°29'.
Warning: this ship's position is months out of date.

Water temperature 20.1 ° C

Date/timePositionNaut miles runAvg speedWind from/ knotsBaromVisibWave heightAir tempDewpointWater temp
2014-May-22 16:00N 30°46' W 017°29'1 0.4 20.1
2014-May-22 14:00N 30°46' W 017°28'0 0.2 20.2
2014-May-22 12:00N 30°45' W 017°28'0 0.1 19.8
2014-May-22 11:00N 30°45' W 017°28'0 0.1 19.8
2014-May-22 10:00N 30°45' W 017°28'0 0.0 19.7
2014-May-22 09:00N 30°45' W 017°28'0 0.0 19.6
2014-May-22 06:00N 30°46' W 017°28'0 0.5 19.6
2014-May-22 05:00N 30°45' W 017°28'0 0.2 19.6
2014-May-22 04:00N 30°46' W 017°28'0 0.0 19.6
2014-May-22 02:00N 30°46' W 017°28'1 0.3 19.6
2014-May-22 00:00N 30°45' W 017°28'0 0.0 19.7
2014-May-21 23:00N 30°45' W 017°28'0 0.3 19.7
2014-May-21 22:00N 30°45' W 017°28'0 0.3 19.7
2014-May-21 21:00N 30°45' W 017°29'1 0.3 19.7
2014-May-21 17:00N 30°44' W 017°29'1 0.2 19.8
2014-May-21 11:00N 30°44' W 017°28'0 0.3 19.7
2014-May-21 10:00N 30°44' W 017°28'0 0.1 19.6
2014-May-21 07:00N 30°44' W 017°28'0 0.0 19.6
2014-May-21 04:00N 30°44' W 017°28'0 0.0 19.6
2014-May-21 03:00N 30°44' W 017°28'1 0.3 19.7
2014-May-20 23:00N 30°44' W 017°29'0 0.2 19.7
2014-May-20 22:00N 30°44' W 017°29'0 0.4 19.7
2014-May-20 21:00N 30°43' W 017°29'0 0.1 19.7
2014-May-20 20:00N 30°43' W 017°29'0 0.1 19.7
2014-May-20 19:00N 30°43' W 017°29'0 0.0 19.7
2014-May-20 18:00N 30°43' W 017°29'1 0.6 19.8
2014-May-20 17:00N 30°43' W 017°29'0 0.2 19.8
2014-May-20 16:00N 30°43' W 017°29'1 0.3 19.8
2014-May-20 13:00N 30°42' W 017°28'0 0.0 19.8
2014-May-20 12:00N 30°42' W 017°28'0 0.2 19.8
2014-May-20 11:00N 30°42' W 017°28'0 0.0 19.7
2014-May-20 05:00N 30°42' W 017°28'0 0.1 19.6
2014-May-20 04:00N 30°42' W 017°28'0 0.0 19.6
2014-May-20 03:00N 30°42' W 017°28'0 0.2 19.6
2014-May-20 02:00N 30°42' W 017°29'1 0.3 19.6
2014-May-19 22:00N 30°41' W 017°30'2 1.6 19.7
2014-May-19 21:00N 30°40' W 017°29'0 0.1 19.7
2014-May-19 18:00N 30°40' W 017°29'1 0.7 19.8
2014-May-19 16:00N 30°39' W 017°30'1 1.0 19.9
2014-May-19 15:00N 30°38' W 017°29'1 0.4 19.9
2014-May-19 13:00N 30°38' W 017°28'0 0.0 19.8
2014-May-19 12:00N 30°38' W 017°28'1 1.2 19.7
2014-May-19 11:00N 30°38' W 017°27'0 0.4 19.7
2014-May-19 10:00N 30°38' W 017°27'1 0.5 19.6
2014-May-19 08:00N 30°39' W 017°26'0 0.0 19.6
2014-May-19 07:00N 30°39' W 017°26'0 0.5 19.6
2014-May-19 06:00N 30°39' W 017°27'0 0.0 19.6
2014-May-19 05:00N 30°39' W 017°27'1 0.5 19.6
2014-May-19 03:00N 30°39' W 017°28'0 0.0 19.6
2014-May-19 01:00N 30°39' W 017°28'3 0.6 19.6
2014-May-18 21:00N 30°36' W 017°28'0 0.0 19.7
2014-May-18 20:00N 30°36' W 017°28'2 0.8 19.7
2014-May-18 18:00N 30°35' W 017°28'0 0.2 19.8
2014-May-18 16:00N 30°34' W 017°27'1 0.7 19.8
2014-May-18 15:00N 30°34' W 017°27'2 0.5 19.8
2014-May-18 12:00N 30°34' W 017°25'0 0.2 19.7
2014-May-18 10:00N 30°34' W 017°25'0 0.5 19.6
2014-May-18 09:00N 30°34' W 017°24'0 0.0 19.6
2014-May-18 07:00N 30°34' W 017°24'1 0.7 19.6
2014-May-18 06:00N 30°35' W 017°25'0 0.0 19.6
2014-May-18 05:00N 30°35' W 017°25'0 0.0 19.6
2014-May-18 04:00N 30°35' W 017°25'3 1.0 19.6
2014-May-18 01:00N 30°32' W 017°27'0 0.0 19.6
2014-May-17 23:00N 30°32' W 017°27'1 1.2 19.6
2014-May-17 22:00N 30°31' W 017°26'1 1.0 19.6
2014-May-17 21:00N 30°31' W 017°26'0 0.1 19.6
2014-May-17 20:00N 30°31' W 017°25'1 0.4 19.7
2014-May-17 18:00N 30°30' W 017°25'0 0.2 19.7
2014-May-17 16:00N 30°30' W 017°25'1 0.7 19.7
2014-May-17 15:00N 30°30' W 017°24'2 0.7 19.8
2014-May-17 12:00N 30°29' W 017°23'1 0.4 19.7
2014-May-17 10:00N 30°29' W 017°22'0 0.0 19.5
2014-May-17 09:00N 30°29' W 017°22'0 0.1 19.5
2014-May-17 05:00N 30°29' W 017°22'0 0.0 19.5
2014-May-17 04:00N 30°29' W 017°22'1 0.5 19.5
2014-May-17 03:00N 30°29' W 017°22'0 0.0 19.5
2014-May-17 02:00N 30°29' W 017°22'2 0.5 19.5
2014-May-16 23:00N 30°27' W 017°23'1 0.9 19.6
2014-May-16 22:00N 30°27' W 017°24'3 1.1 19.6
2014-May-16 19:00N 30°24' W 017°21'0 0.0 19.6
2014-May-16 18:00N 30°24' W 017°21'0 0.0 19.6
2014-May-16 17:00N 30°24' W 017°21'1 0.6 19.7
2014-May-16 15:00N 30°23' W 017°20'1 0.3 19.7
2014-May-16 12:00N 30°23' W 017°19'0 0.2 19.7
2014-May-16 11:00N 30°23' W 017°19'1 0.5 19.6
2014-May-16 09:00N 30°23' W 017°18'0 0.0 19.6
2014-May-16 08:00N 30°23' W 017°18'0 0.2 19.5
2014-May-16 06:00N 30°23' W 017°18'0 0.1 19.5
2014-May-16 04:00N 30°23' W 017°18'1 0.5 19.6
2014-May-16 01:00N 30°21' W 017°18'0 0.0 19.6
2014-May-16 00:00N 30°21' W 017°18'0 0.0 19.6
2014-May-15 23:00N 30°21' W 017°18'0 0.1 19.6
2014-May-15 22:00N 30°21' W 017°18'2 1.9 19.6
2014-May-15 21:00N 30°19' W 017°17'1 0.2 19.7
2014-May-15 16:00N 30°19' W 017°16'1 0.9 19.8
2014-May-15 15:00N 30°18' W 017°16'1 0.8 19.8
2014-May-15 14:00N 30°18' W 017°15'0 0.0 19.7
2014-May-15 12:00N 30°18' W 017°15'0 0.2 19.6
2014-May-15 11:00N 30°18' W 017°15'1 0.5 19.5
2014-May-15 09:00N 30°18' W 017°13'0 0.0 19.4
2014-May-15 08:00N 30°18' W 017°13'0 0.4 19.4
2014-May-15 07:00N 30°17' W 017°13'0 0.1 19.4
2014-May-15 06:00N 30°17' W 017°13'0 0.4 19.4
2014-May-15 05:00N 30°17' W 017°13'0 0.0 19.4
2014-May-15 04:00N 30°17' W 017°13'1 0.5 19.4
2014-May-15 03:00N 30°17' W 017°12'1 0.3 19.4
2014-May-14 23:00N 30°16' W 017°12'0 0.4 19.5
2014-May-14 22:00N 30°15' W 017°11'0 0.2 19.5
2014-May-14 21:00N 30°15' W 017°11'1 0.3 19.5
2014-May-14 19:00N 30°15' W 017°11'0 0.0 19.6
2014-May-14 18:00N 30°15' W 017°11'1 0.6 19.7
2014-May-14 17:00N 30°14' W 017°11'1 0.6 19.7
2014-May-14 16:00N 30°14' W 017°10'3 0.6 19.7
2014-May-14 11:00N 30°12' W 017°07'0 0.2 19.4
2014-May-14 10:00N 30°12' W 017°07'0 0.0 19.4
2014-May-14 09:00N 30°12' W 017°07'1 0.4 19.4
2014-May-14 07:00N 30°12' W 017°06'0 0.1 19.4
2014-May-14 06:00N 30°12' W 017°06'0 0.3 19.4
2014-May-14 05:00N 30°12' W 017°06'0 0.0 19.5
2014-May-14 04:00N 30°12' W 017°06'0 0.4 19.5
2014-May-14 03:00N 30°12' W 017°06'1 0.4 19.5
2014-May-14 00:00N 30°11' W 017°05'1 0.4 19.6
2014-May-13 21:00N 30°10' W 017°06'1 1.3 19.7
2014-May-13 20:00N 30°09' W 017°04'0 0.0 19.7
2014-May-13 19:00N 30°09' W 017°04'1 0.2 19.7
2014-May-13 16:00N 30°09' W 017°04'3 0.6 19.9
2014-May-13 10:00N 30°08' W 017°00'1 0.7 19.2
2014-May-13 09:00N 30°08' W 016°59'1 0.3 19.2
2014-May-13 05:00N 30°08' W 016°58'0 0.0 19.2
2014-May-13 04:00N 30°08' W 016°58'1 0.2 19.2
2014-May-13 00:00N 30°07' W 016°58'1 0.8 19.2
2014-May-12 23:00N 30°07' W 016°57'1 0.6 19.2
2014-May-12 22:00N 30°06' W 016°58'0 0.4 19.2
2014-May-12 21:00N 30°06' W 016°57'1 1.1 19.2
2014-May-12 20:00N 30°06' W 016°56'1 0.6 19.3
2014-May-12 19:00N 30°05' W 016°56'2 0.6 19.3
2014-May-12 16:00N 30°04' W 016°54'   19.3

Dump ship's entire track history